Time;durP1;ratioP1;P1;durP2;ratioP2;P2;SDS_P1;SDS_P2;PMS_P1;PMS_P2;Temp;Humidity;BMP_temperature;BMP_pressure;BME280_temperature;BME280_humidity;BME280_pressure;Samples;Min_cycle;Max_cycle;Signal;HPM_P1;HPM_P2
2022/04/03 00:01:27;;;;;;;14.45;9.75;;;103.20;2227.20;;;;;;5074352;28;20055;-77
2022/04/03 00:03:53;;;;;;;21.05;12.18;;;103.10;2227.20;;;;;;5072633;28;20028;-76
2022/04/03 00:06:19;;;;;;;15.65;10.00;;;103.10;2227.20;;;;;;5073906;28;20472;-76
2022/04/03 00:08:45;;;;;;;15.75;11.20;;;103.00;2227.20;;;;;;5073591;28;20035;-76
2022/04/03 00:11:11;;;;;;;20.52;15.75;;;102.90;2227.20;;;;;;5072491;28;20025;-77
2022/04/03 00:13:37;;;;;;;18.52;14.60;;;103.00;2227.20;;;;;;5073748;28;20048;-77
2022/04/03 00:16:04;;;;;;;17.35;13.13;;;103.00;2227.20;;;;;;5073391;28;20395;-77
2022/04/03 00:18:29;;;;;;;13.20;8.40;;;103.00;2227.20;;;;;;5072406;28;20115;-77
2022/04/03 00:20:55;;;;;;;18.63;13.45;;;102.80;2227.20;;;;;;5073399;28;20519;-77
2022/04/03 00:23:23;;;;;;;23.85;15.15;;;102.70;2227.20;;;;;;5073715;28;20028;-78
2022/04/03 00:25:52;;;;;;;21.48;15.85;;;102.60;2227.20;;;;;;5073635;28;20025;-77
2022/04/03 00:28:19;;;;;;;21.83;10.35;;;102.80;2227.20;;;;;;5072187;28;20050;-77
2022/04/03 00:30:45;;;;;;;17.05;10.18;;;102.50;2227.20;;;;;;5089132;28;20476;-77
2022/04/03 00:33:12;;;;;;;24.98;18.73;;;102.50;2227.20;;;;;;5071981;28;20021;-77
2022/04/03 00:35:37;;;;;;;26.85;18.55;;;102.50;2227.20;;;;;;5073092;28;20032;-78
2022/04/03 00:38:03;;;;;;;27.48;19.73;;;77.70;2227.20;;;;;;5073134;28;20024;-78
2022/04/03 00:40:29;;;;;;;25.30;17.38;;;102.40;2227.20;;;;;;5088943;28;20025;-78
2022/04/03 00:42:56;;;;;;;31.20;20.73;;;102.40;2227.20;;;;;;5073393;28;20107;-77
2022/04/03 00:45:22;;;;;;;27.98;21.10;;;102.40;2227.20;;;;;;5073189;28;20025;-77
2022/04/03 00:47:52;;;;;;;28.40;21.02;;;102.40;2227.20;;;;;;5071836;28;20058;-77
2022/04/03 00:50:18;;;;;;;26.83;20.17;;;102.50;2227.20;;;;;;5071735;28;20056;-77
2022/04/03 00:52:44;;;;;;;27.50;21.88;;;102.50;2227.20;;;;;;5073030;28;20115;-77
2022/04/03 00:55:10;;;;;;;30.35;20.80;;;102.50;2176.00;;;;;;5071510;28;20127;-77
2022/04/03 00:57:36;;;;;;;30.83;21.45;;;102.50;2124.80;;;;;;5088512;28;20028;-77
2022/04/03 01:00:04;;;;;;;27.90;19.83;;;102.50;2227.20;;;;;;5071567;28;20024;-77
2022/04/03 01:02:31;;;;;;;31.25;21.52;;;102.60;2227.20;;;;;;5088399;28;20024;-77
2022/04/03 01:04:57;;;;;;;31.58;22.48;;;102.60;2227.20;;;;;;5071478;28;20025;-77
2022/04/03 01:07:23;;;;;;;30.38;20.58;;;102.40;2227.20;;;;;;5071979;28;20111;-77
2022/04/03 01:09:49;;;;;;;28.30;21.70;;;77.60;2227.20;;;;;;5072683;28;20035;-77
2022/04/03 01:12:15;;;;;;;29.77;17.85;;;77.60;2227.20;;;;;;5071242;28;20029;-77
2022/04/03 01:14:42;;;;;;;25.73;18.33;;;77.70;2227.20;;;;;;5072284;28;20080;-79
2022/04/03 01:17:12;;;;;;;26.92;19.38;;;77.50;2227.20;;;;;;5071220;28;20109;-77
2022/04/03 01:19:38;;;;;;;27.10;19.48;;;77.60;2227.20;;;;;;5071159;28;20032;-77
2022/04/03 01:22:04;;;;;;;24.80;18.73;;;77.70;2227.20;;;;;;5070725;28;20039;-77
2022/04/03 01:24:30;;;;;;;25.70;19.55;;;77.70;2227.20;;;;;;5071091;28;20024;-77
2022/04/03 01:26:56;;;;;;;27.88;17.80;;;77.60;2227.20;;;;;;5071867;28;20021;-77
2022/04/03 01:29:23;;;;;;;23.35;16.88;;;77.60;2227.20;;;;;;5071017;28;20047;-78
2022/04/03 01:31:50;;;;;;;26.45;17.58;;;77.60;2176.00;;;;;;5072281;28;20070;-77
2022/04/03 01:34:17;;;;;;;24.23;18.77;;;77.40;2227.20;;;;;;5072151;28;20403;-78
2022/04/03 01:36:44;;;;;;;29.83;19.95;;;77.40;2227.20;;;;;;5070898;28;20175;-78
2022/04/03 01:39:10;;;;;;;29.15;19.95;;;77.40;2227.20;;;;;;5071881;28;20517;-77
2022/04/03 01:41:37;;;;;;;26.75;17.73;;;77.30;2227.20;;;;;;5087737;28;20035;-78
2022/04/03 01:44:07;;;;;;;38.88;27.17;;;77.30;2227.20;;;;;;5070409;28;20032;-76
2022/04/03 01:46:33;;;;;;;34.55;21.52;;;77.50;2227.20;;;;;;5071193;28;20025;-76
2022/04/03 01:48:59;;;;;;;28.02;18.98;;;77.60;2227.20;;;;;;5070730;28;20020;-75
2022/04/03 01:51:25;;;;;;;33.67;22.60;;;102.40;2227.20;;;;;;5069580;28;20047;-76
2022/04/03 01:53:51;;;;;;;31.73;21.30;;;102.40;2227.20;;;;;;5071005;28;20035;-76
2022/04/03 01:56:16;;;;;;;29.95;19.73;;;102.40;2227.20;;;;;;5071106;28;20103;-76
2022/04/03 01:58:42;;;;;;;33.22;22.45;;;102.40;2227.20;;;;;;5070621;28;20025;-77
2022/04/03 02:01:08;;;;;;;30.83;20.10;;;102.40;2227.20;;;;;;5070577;28;20024;-77
2022/04/03 02:03:34;;;;;;;34.60;24.67;;;102.50;2124.80;;;;;;5070580;28;20029;-77
2022/04/03 02:06:00;;;;;;;27.80;20.90;;;102.40;2201.60;;;;;;5071754;28;20073;-77
2022/04/03 02:08:26;;;;;;;27.33;20.35;;;102.50;2227.20;;;;;;5070565;28;20032;-76
2022/04/03 02:10:52;;;;;;;25.92;19.17;;;102.40;2227.20;;;;;;5071820;28;20036;-76
2022/04/03 02:13:18;;;;;;;25.80;18.98;;;102.50;2227.20;;;;;;5104075;28;20163;-76
2022/04/03 02:15:45;;;;;;;23.77;18.15;;;102.70;2227.20;;;;;;5070258;28;20029;-76
2022/04/03 02:18:10;;;;;;;24.50;18.73;;;102.60;2227.20;;;;;;5073483;28;20494;-76
2022/04/03 02:20:37;;;;;;;28.67;20.50;;;102.50;2073.60;;;;;;5078404;28;20103;-76
2022/04/03 02:23:04;;;;;;;28.52;20.75;;;102.60;2227.20;;;;;;5077213;28;20028;-77
2022/04/03 02:25:30;;;;;;;30.90;20.42;;;102.70;1920.00;;;;;;5078376;28;20021;-77
2022/04/03 02:27:56;;;;;;;27.52;20.58;;;102.70;1868.80;;;;;;5078023;28;20036;-76
2022/04/03 02:30:22;;;;;;;29.50;20.60;;;102.80;2227.20;;;;;;5078347;28;20052;-76
2022/04/03 02:32:48;;;;;;;30.98;20.17;;;102.90;2227.20;;;;;;5077028;28;20067;-76
2022/04/03 02:35:14;;;;;;;23.48;18.02;;;102.90;2227.20;;;;;;5077878;28;20090;-76
2022/04/03 02:37:41;;;;;;;29.25;20.10;;;102.80;2227.20;;;;;;5078316;28;20078;-76
2022/04/03 02:40:09;;;;;;;22.90;17.73;;;102.90;2227.20;;;;;;5078256;28;20060;-76
2022/04/03 02:42:35;;;;;;;24.63;19.50;;;103.00;2227.20;;;;;;5076860;28;20020;-76
2022/04/03 02:45:01;;;;;;;28.10;19.85;;;102.80;2227.20;;;;;;5076845;28;20028;-76
2022/04/03 02:47:27;;;;;;;25.77;18.92;;;102.70;2227.20;;;;;;5077922;28;20514;-76
2022/04/03 02:49:52;;;;;;;23.58;17.90;;;102.60;1945.60;;;;;;5077900;28;20020;-76
2022/04/03 02:52:21;;;;;;;24.33;17.17;;;102.40;2099.20;;;;;;5077874;28;20426;-76
2022/04/03 02:54:47;;;;;;;24.98;17.50;;;102.40;2227.20;;;;;;5076705;28;20399;-76
2022/04/03 02:57:15;;;;;;;23.55;16.77;;;102.40;2227.20;;;;;;5078070;28;20122;-76
2022/04/03 02:59:41;;;;;;;26.30;18.98;;;77.60;2227.20;;;;;;5076704;28;20021;-77
2022/04/03 03:02:07;;;;;;;24.33;18.52;;;77.70;2227.20;;;;;;5093642;28;20035;-77
2022/04/03 03:04:35;;;;;;;23.63;16.75;;;102.40;2227.20;;;;;;5076787;28;20029;-76
2022/04/03 03:07:05;;;;;;;22.98;17.67;;;102.40;2227.20;;;;;;5078019;28;20016;-77
2022/04/03 03:09:31;;;;;;;23.95;17.88;;;102.40;2227.20;;;;;;5076614;28;20472;-78
2022/04/03 03:11:58;;;;;;;23.05;16.23;;;77.60;2227.20;;;;;;5077933;28;20029;-77
2022/04/03 03:14:23;;;;;;;25.40;17.17;;;77.50;2227.20;;;;;;5077887;28;20060;-77
2022/04/03 03:16:49;;;;;;;24.05;17.35;;;77.50;2227.20;;;;;;5077915;28;20024;-77
2022/04/03 03:19:15;;;;;;;28.88;19.17;;;77.50;2227.20;;;;;;5077869;28;20487;-76
2022/04/03 03:21:42;;;;;;;26.33;20.02;;;77.50;2227.20;;;;;;5077603;28;20024;-76
2022/04/03 03:24:09;;;;;;;26.73;21.15;;;77.50;2227.20;;;;;;5077915;28;20050;-76
2022/04/03 03:26:36;;;;;;;22.80;17.90;;;77.60;2227.20;;;;;;5077635;28;20463;-76
2022/04/03 03:29:02;;;;;;;21.65;16.48;;;77.70;2227.20;;;;;;5076229;28;20032;-76
2022/04/03 03:31:28;;;;;;;22.65;17.35;;;77.70;2227.20;;;;;;5072890;28;20035;-76
2022/04/03 03:33:54;;;;;;;24.63;17.48;;;77.70;2227.20;;;;;;5074544;28;20032;-76
2022/04/03 03:36:19;;;;;;;22.52;16.00;;;102.40;2227.20;;;;;;5074581;28;20036;-76
2022/04/03 03:38:45;;;;;;;19.88;14.75;;;77.70;2227.20;;;;;;5073027;28;20478;-76
2022/04/03 03:41:11;;;;;;;21.00;15.98;;;77.60;2227.20;;;;;;5090120;28;20025;-76
2022/04/03 03:43:37;;;;;;;18.92;15.18;;;77.60;2227.20;;;;;;5072931;28;20518;-76
2022/04/03 03:46:03;;;;;;;20.50;15.30;;;77.70;2227.20;;;;;;5073106;28;20051;-76
2022/04/03 03:48:29;;;;;;;19.67;14.55;;;77.60;2227.20;;;;;;5074312;28;20100;-76
2022/04/03 03:50:55;;;;;;;18.08;13.40;;;102.40;2227.20;;;;;;5072950;28;20479;-76
2022/04/03 03:53:21;;;;;;;16.75;12.77;;;102.40;2227.20;;;;;;5074087;28;20107;-76
2022/04/03 03:55:46;;;;;;;21.48;15.50;;;77.60;2227.20;;;;;;5074212;28;20032;-77
2022/04/03 03:58:12;;;;;;;19.15;14.07;;;77.70;2227.20;;;;;;5073755;28;20025;-76
2022/04/03 04:00:38;;;;;;;16.75;12.52;;;77.70;2227.20;;;;;;5089609;28;20028;-77
2022/04/03 04:03:04;;;;;;;16.25;11.30;;;77.60;2227.20;;;;;;5073717;28;20027;-77
2022/04/03 04:05:30;;;;;;;18.48;14.57;;;77.50;2227.20;;;;;;5073953;28;20024;-77
2022/04/03 04:07:55;;;;;;;20.15;16.90;;;77.60;2227.20;;;;;;5072579;28;20094;-77
2022/04/03 04:10:21;;;;;;;18.70;13.65;;;77.50;2227.20;;;;;;5072594;28;20028;-77
2022/04/03 04:12:47;;;;;;;19.60;15.15;;;77.50;2227.20;;;;;;5073387;28;20057;-77
2022/04/03 04:15:15;;;;;;;19.00;14.18;;;77.60;2227.20;;;;;;5072249;28;20079;-76
2022/04/03 04:17:45;;;;;;;20.10;14.70;;;77.50;2227.20;;;;;;5073755;28;20096;-77
2022/04/03 04:20:13;;;;;;;17.20;14.13;;;77.60;2227.20;;;;;;5072457;28;20044;-78
2022/04/03 04:22:40;;;;;;;19.48;13.38;;;102.40;2227.20;;;;;;5073757;28;20028;-78
2022/04/03 04:25:07;;;;;;;19.65;14.55;;;77.70;1843.20;;;;;;5073162;28;20048;-77
2022/04/03 04:27:33;;;;;;;18.33;13.75;;;77.60;2227.20;;;;;;5072039;28;20108;-76
2022/04/03 04:29:59;;;;;;;19.90;15.77;;;77.70;2099.20;;;;;;5088909;28;20119;-76
2022/04/03 04:32:24;;;;;;;20.45;15.43;;;102.40;1920.00;;;;;;5088341;28;20033;-77
2022/04/03 04:34:51;;;;;;;20.70;16.27;;;77.70;2227.20;;;;;;5073330;28;20165;-75
2022/04/03 04:37:18;;;;;;;21.60;15.48;;;77.70;2227.20;;;;;;5072049;28;20635;-77
2022/04/03 04:39:45;;;;;;;24.60;17.60;;;77.70;2227.20;;;;;;5073306;28;20032;-76
2022/04/03 04:42:11;;;;;;;20.90;15.50;;;102.40;2150.40;;;;;;5071733;28;20117;-76
2022/04/03 04:44:37;;;;;;;17.83;15.50;;;102.40;2227.20;;;;;;5073210;28;20025;-76
2022/04/03 04:47:03;;;;;;;18.70;13.98;;;102.40;1868.80;;;;;;5073250;28;20021;-76
2022/04/03 04:49:28;;;;;;;18.13;14.70;;;102.40;2048.00;;;;;;5073156;28;20095;-76
2022/04/03 04:51:54;;;;;;;21.52;17.30;;;102.40;2048.00;;;;;;5071712;28;20103;-76
2022/04/03 04:54:20;;;;;;;20.70;16.40;;;102.50;2227.20;;;;;;5071592;28;20045;-76
2022/04/03 04:56:46;;;;;;;22.55;15.65;;;102.60;2227.20;;;;;;5105517;28;20031;-76
2022/04/03 04:59:12;;;;;;;21.23;16.83;;;102.70;2227.20;;;;;;5071596;28;20115;-76
2022/04/03 05:01:39;;;;;;;21.42;16.00;;;102.70;2227.20;;;;;;5072795;28;20039;-76
2022/04/03 05:04:06;;;;;;;20.63;15.43;;;102.70;2227.20;;;;;;5072489;28;20029;-76
2022/04/03 05:06:34;;;;;;;19.98;15.57;;;102.70;2227.20;;;;;;5071528;28;20074;-76
2022/04/03 05:09:00;;;;;;;18.90;14.93;;;102.60;2227.20;;;;;;5072856;28;20070;-76
2022/04/03 05:11:27;;;;;;;21.40;17.17;;;102.70;2227.20;;;;;;5072759;28;20054;-77
2022/04/03 05:13:53;;;;;;;22.90;18.15;;;102.70;2227.20;;;;;;5071086;28;20072;-76
2022/04/03 05:16:19;;;;;;;23.63;17.13;;;102.70;2227.20;;;;;;5072582;28;20031;-76
2022/04/03 05:18:46;;;;;;;24.83;17.85;;;102.80;2227.20;;;;;;5072629;28;20111;-76
2022/04/03 05:21:12;;;;;;;24.38;17.67;;;103.00;2227.20;;;;;;5072306;28;20024;-76
2022/04/03 05:23:39;;;;;;;22.75;16.88;;;103.10;2227.20;;;;;;5072578;28;20032;-76
2022/04/03 05:26:05;;;;;;;26.58;20.00;;;103.20;2227.20;;;;;;5070974;28;20116;-75
2022/04/03 05:28:31;;;;;;;24.67;19.88;;;103.20;2227.20;;;;;;5072321;28;20104;-76
2022/04/03 05:30:57;;;;;;;25.92;17.30;;;103.30;2227.20;;;;;;5088013;28;20052;-76
2022/04/03 05:33:22;;;;;;;24.02;17.23;;;103.30;2227.20;;;;;;5071996;28;20106;-76
2022/04/03 05:35:48;;;;;;;23.67;18.42;;;128.00;2252.80;;;;;;5087941;28;20024;-77
2022/04/03 05:38:15;;;;;;;26.42;19.25;;;128.10;2252.80;;;;;;5072439;28;20023;-77
2022/04/03 05:40:40;;;;;;;33.50;23.15;;;103.30;2227.20;;;;;;5071048;28;21055;-76
2022/04/03 05:43:08;;;;;;;26.33;20.40;;;103.30;2227.20;;;;;;5070783;28;20112;-76
2022/04/03 05:45:34;;;;;;;38.88;27.42;;;103.20;2227.20;;;;;;5072159;28;20379;-77
2022/04/03 05:47:59;;;;;;;35.85;26.63;;;103.30;2227.20;;;;;;5071850;28;20472;-76
2022/04/03 05:50:26;;;;;;;24.65;19.17;;;103.30;2227.20;;;;;;5069491;28;20031;-76
2022/04/03 05:52:52;;;;;;;28.02;20.95;;;103.30;2227.20;;;;;;5070224;28;20481;-76
2022/04/03 05:55:20;;;;;;;28.08;23.05;;;103.20;2227.20;;;;;;5069527;28;20074;-76
2022/04/03 05:57:48;;;;;;;30.23;19.75;;;128.00;2252.80;;;;;;5071106;28;20021;-77
2022/04/03 06:00:15;;;;;;;20.80;12.25;;;103.10;2227.20;;;;;;5070720;28;20017;-76
2022/04/03 06:02:51;;;;;;;23.45;18.33;;;102.70;2227.20;;;;;;5069643;28;20081;-77
2022/04/03 06:05:19;;;;;;;24.98;19.98;;;102.90;2227.20;;;;;;5101835;28;20086;-76
2022/04/03 06:07:44;;;;;;;25.15;19.45;;;102.90;2227.20;;;;;;5067731;28;20123;-76
2022/04/03 06:10:10;;;;;;;27.02;18.48;;;103.00;2227.20;;;;;;5071666;28;20107;-76
2022/04/03 06:12:37;;;;;;;27.50;21.33;;;103.20;2227.20;;;;;;5071369;28;20060;-76
2022/04/03 06:15:03;;;;;;;26.13;18.73;;;103.00;2227.20;;;;;;5070368;28;20133;-77
2022/04/03 06:17:28;;;;;;;29.95;22.85;;;103.10;2227.20;;;;;;5069400;28;20722;-77
2022/04/03 06:19:54;;;;;;;30.48;21.70;;;103.20;2227.20;;;;;;5071004;28;20056;-76
2022/04/03 06:22:20;;;;;;;30.63;21.40;;;103.00;2227.20;;;;;;5103482;28;20021;-76
2022/04/03 06:24:45;;;;;;;20.85;12.75;;;103.10;2227.20;;;;;;5070597;28;20104;-76
2022/04/03 06:27:11;;;;;;;35.47;23.02;;;103.00;2227.20;;;;;;5070630;28;20100;-76
2022/04/03 06:29:37;;;;;;;32.33;24.02;;;103.10;1843.20;;;;;;5070200;28;20103;-76
2022/04/03 06:32:03;;;;;;;33.97;24.77;;;103.20;2227.20;;;;;;5070173;28;20024;-77
2022/04/03 06:34:29;;;;;;;28.42;18.25;;;103.20;2227.20;;;;;;5070389;28;20039;-77
2022/04/03 06:36:55;;;;;;;29.27;22.55;;;103.00;2227.20;;;;;;5069629;28;20028;-76
2022/04/03 06:39:20;;;;;;;38.53;24.42;;;103.20;2227.20;;;;;;5071844;28;21234;-76
2022/04/03 06:41:46;;;;;;;27.17;19.88;;;103.10;2227.20;;;;;;5071088;28;20101;-76
2022/04/03 06:44:12;;;;;;;42.75;24.50;;;103.00;2227.20;;;;;;5103872;28;20111;-76
2022/04/03 06:46:38;;;;;;;39.53;27.13;;;103.20;2227.20;;;;;;5070211;28;20017;-76
2022/04/03 06:49:03;;;;;;;34.63;24.13;;;103.30;2227.20;;;;;;5103789;28;20422;-78
2022/04/03 06:51:29;;;;;;;31.33;23.52;;;128.10;2252.80;;;;;;5070034;28;20028;-76
2022/04/03 06:53:55;;;;;;;39.95;26.15;;;128.30;2252.80;;;;;;5069886;28;20037;-76
2022/04/03 06:56:21;;;;;;;56.58;42.55;;;128.10;2252.80;;;;;;5068993;28;20024;-76
2022/04/03 06:58:47;;;;;;;28.88;20.83;;;103.30;2227.20;;;;;;5070208;28;20108;-75
2022/04/03 07:01:13;;;;;;;57.05;28.40;;;128.10;2252.80;;;;;;5068842;28;20531;-75
2022/04/03 07:03:38;;;;;;;62.97;27.38;;;128.20;2252.80;;;;;;5068852;28;20032;-77
2022/04/03 07:06:04;;;;;;;34.97;25.05;;;128.40;2252.80;;;;;;5072789;28;20024;-78
2022/04/03 07:08:30;;;;;;;39.45;23.73;;;128.40;2252.80;;;;;;5073194;28;20063;-76
2022/04/03 07:10:56;;;;;;;34.33;24.38;;;128.40;2252.80;;;;;;5074750;28;20028;-77
2022/04/03 07:13:22;;;;;;;33.53;23.73;;;128.30;2252.80;;;;;;5073517;28;20067;-76
2022/04/03 07:15:50;;;;;;;38.17;25.30;;;128.30;2252.80;;;;;;5074481;28;20033;-76
2022/04/03 07:18:16;;;;;;;36.33;26.35;;;128.00;2252.80;;;;;;5074477;28;20107;-75
2022/04/03 07:20:46;;;;;;;36.78;27.98;;;128.10;2252.80;;;;;;5072601;28;20473;-77
2022/04/03 07:23:12;;;;;;;44.58;29.63;;;128.20;2252.80;;;;;;5072665;28;20115;-77
2022/04/03 07:25:38;;;;;;;42.60;29.85;;;128.50;2252.80;;;;;;5072398;28;20032;-77
2022/04/03 07:28:04;;;;;;;37.63;26.40;;;;;;;;;;5106614;28;20048;-77
2022/04/03 07:30:30;;;;;;;39.22;27.23;;;;;;;;;;5073106;28;20475;-77
2022/04/03 07:32:56;;;;;;;42.22;28.75;;;;;;;;;;5074565;28;20039;-76
2022/04/03 07:35:22;;;;;;;46.67;32.22;;;;;;;;;;5073069;28;20419;-76
2022/04/03 07:37:48;;;;;;;45.63;32.72;;;;;;;;;;5073204;28;20077;-75
2022/04/03 07:40:14;;;;;;;43.97;30.02;;;;;;;;;;5074098;28;20532;-76
2022/04/03 07:42:41;;;;;;;35.58;26.48;;;;;;;;;;5074486;28;20097;-75
2022/04/03 07:45:07;;;;;;;36.05;25.08;;;;;;;;;;5074162;28;20138;-76
2022/04/03 07:47:33;;;;;;;33.45;24.35;;;;;;;;;;5072689;28;20103;-76
2022/04/03 07:49:59;;;;;;;44.15;32.15;;;;;;;;;;5073800;28;20504;-76
2022/04/03 07:52:25;;;;;;;41.92;29.52;;;;;;;;;;5072740;28;20055;-76
2022/04/03 07:54:51;;;;;;;47.78;30.73;;;;;;;;;;5073846;28;20040;-76
2022/04/03 07:57:19;;;;;;;46.22;31.13;;;;;;;;;;5073929;28;20110;-77
2022/04/03 07:59:45;;;;;;;45.47;32.17;;;;;;;;;;5073893;28;20053;-75
2022/04/03 08:02:12;;;;;;;49.50;31.02;;;;;;;;;;5073551;28;20024;-77
2022/04/03 08:04:38;;;;;;;52.35;34.17;;;;;;;;;;5073574;28;20391;-77
2022/04/03 08:07:04;;;;;;;43.53;30.08;;;;;;;;;;5072420;28;20434;-77
2022/04/03 08:09:30;;;;;;;43.45;31.65;;;;;;;;;;5074076;28;20021;-76
2022/04/03 08:11:56;;;;;;;39.80;29.17;;;;;;;;;;5073459;28;20103;-76
2022/04/03 08:14:23;;;;;;;41.80;28.60;;;;;;;;;;5073502;28;20048;-77
2022/04/03 08:16:50;;;;;;;39.25;28.50;;;;;;;;;;5072946;28;20040;-76
2022/04/03 08:19:16;;;;;;;44.85;28.25;;;;;;;;;;5073563;28;20238;-77
2022/04/03 08:21:43;;;;;;;41.78;29.42;;;;;;;;;;5073884;28;20086;-76
2022/04/03 08:24:09;;;;;;;34.78;27.15;;;;;;;;;;5073103;28;20460;-75
2022/04/03 08:26:35;;;;;;;37.45;29.10;;;;;;;;;;5073601;28;20460;-75
2022/04/03 08:29:01;;;;;;;47.90;28.73;;;;;;;;;;5073552;28;20066;-76
2022/04/03 08:31:30;;;;;;;35.53;22.92;;;;;;;;;;5072942;28;20020;-76
2022/04/03 08:33:57;;;;;;;32.63;23.25;;;;;;;;;;5072749;28;20408;-76
2022/04/03 08:36:23;;;;;;;37.92;23.85;;;;;;;;;;5071639;28;20430;-76
2022/04/03 08:38:50;;;;;;;40.33;26.10;;;;;;;;;;5073188;28;20028;-76
2022/04/03 08:41:16;;;;;;;38.85;28.98;;;;;;;;;;5072951;28;20029;-76
2022/04/03 08:43:42;;;;;;;36.90;23.63;;;;;;;;;;5072213;28;20029;-76
2022/04/03 08:46:08;;;;;;;37.03;25.55;;;;;;;;;;5072099;28;20017;-78
2022/04/03 08:48:35;;;;;;;37.33;24.05;;;;;;;;;;5070878;28;20016;-77
2022/04/03 08:51:02;;;;;;;30.02;22.15;;;;;;;;;;5070530;28;20031;-77
2022/04/03 08:53:30;;;;;;;31.45;23.67;;;;;;;;;;5072068;28;20477;-76
2022/04/03 08:55:56;;;;;;;34.17;22.38;;;;;;;;;;5070680;28;20029;-76
2022/04/03 08:58:22;;;;;;;31.83;21.42;;;;;;;;;;5070685;28;20117;-77
2022/04/03 09:00:48;;;;;;;28.10;22.55;;;;;;;;;;5070425;28;20021;-76
2022/04/03 09:03:14;;;;;;;26.92;20.25;;;;;;;;;;5072056;28;20052;-77
2022/04/03 09:05:41;;;;;;;26.75;21.33;;;;;;;;;;5070685;28;20033;-76
2022/04/03 09:08:09;;;;;;;30.27;20.33;;;;;;;;;;5071919;28;20016;-76
2022/04/03 09:10:35;;;;;;;28.15;20.63;;;;;;;;;;5069640;28;20375;-75
2022/04/03 09:13:01;;;;;;;34.55;20.05;;;;;;;;;;5071211;28;20685;-75
2022/04/03 09:15:28;;;;;;;25.27;18.98;;;;;;;;;;5071272;28;20071;-76
2022/04/03 09:17:55;;;;;;;31.15;22.75;;;;;;;;;;5069887;28;20062;-76
2022/04/03 09:20:31;;;;;;;29.15;21.40;;;;;;;;;;5070273;28;20183;-76
2022/04/03 09:22:59;;;;;;;30.45;21.40;;;;;;;;;;5069074;28;20491;-76
2022/04/03 09:25:32;;;;;;;28.42;20.52;;;;;;;;;;5071452;28;20369;-76
2022/04/03 09:27:58;;;;;;;;;;;;;;;;;;5069173;28;20024;-76
2022/04/03 09:30:29;;;;;;;34.72;19.85;;;;;;;;;;5072053;28;19915;-77
2022/04/03 09:32:56;;;;;;;23.80;15.30;;;;;;;;;;5071495;28;20025;-76
2022/04/03 09:35:24;;;;;;;21.67;14.93;;;;;;;;;;5071256;28;20081;-77
2022/04/03 09:38:10;;;;;;;27.70;20.38;;;;;;;;;;5071307;28;20017;-77
2022/04/03 09:40:38;;;;;;;23.15;17.23;;;;;;;;;;5051126;28;20093;-76
2022/04/03 09:43:16;;;;;;;22.15;17.85;;;;;;;;;;5069675;28;20056;-77
2022/04/03 09:45:48;;;;;;;19.33;15.85;;;;;;;;;;5068334;28;20028;-77
2022/04/03 09:48:34;;;;;;;20.20;15.00;;;;;;;;;;5069715;28;20027;-76
2022/04/03 09:51:11;;;;;;;24.45;18.80;;;179.50;2252.80;;;;;;5071101;28;20103;-77
2022/04/03 09:53:52;;;;;;;27.05;18.42;;;179.20;2252.80;;;;;;5068041;28;20032;-76
2022/04/03 09:56:23;;;;;;;49.78;29.15;;;154.50;2252.80;;;;;;5069004;28;20025;-76
2022/04/03 09:58:52;;;;;;;42.70;28.90;;;154.20;2252.80;;;;;;5071347;28;20134;-76
2022/04/03 10:01:38;;;;;;;61.65;40.63;;;154.40;2252.80;;;;;;5069648;28;20106;-76
2022/04/03 10:04:13;;;;;;;43.70;28.10;;;179.60;2252.80;;;;;;5052085;28;20052;-76
2022/04/03 10:06:39;;;;;;;33.25;25.08;;;180.00;2252.80;;;;;;5069252;28;20098;-76
2022/04/03 10:09:11;;;;;;;41.05;25.70;;;179.80;2252.80;;;;;;5070508;28;20047;-76
2022/04/03 10:11:41;;;;;;;49.40;28.25;;;204.90;2252.80;;;;;;5068650;28;20021;-76
2022/04/03 10:14:09;;;;;;;36.00;25.05;;;179.70;2252.80;;;;;;5070058;28;20048;-76
2022/04/03 10:16:35;;;;;;;38.78;19.60;;;179.40;2252.80;;;;;;5069951;28;20040;-76
2022/04/03 10:19:02;;;;;;;38.08;28.20;;;154.50;2252.80;;;;;;5070487;28;20028;-76
2022/04/03 10:21:39;;;;;;;44.30;29.75;;;179.20;2252.80;;;;;;5069350;28;20480;-76
2022/04/03 10:24:27;;;;;;;58.33;30.40;;;154.50;2252.80;;;;;;5051223;28;20112;-76
2022/04/03 10:27:05;;;;;;;42.10;27.63;;;154.50;2252.80;;;;;;5069133;28;20468;-76
2022/04/03 10:29:37;;;;;;;38.05;27.23;;;154.30;2252.80;;;;;;5070526;28;20030;-76
2022/04/03 10:32:04;;;;;;;40.40;21.20;;;154.00;2252.80;;;;;;5068658;28;20043;-75
2022/04/03 10:34:32;;;;;;;37.55;21.70;;;;;;;;;;5069268;28;20032;-76
2022/04/03 10:36:58;;;;;;;33.10;20.80;;;;;;;;;;5067699;28;20025;-76
2022/04/03 10:39:28;;;;;;;36.97;25.45;;;;;;;;;;5071250;28;20024;-75
2022/04/03 10:42:13;;;;;;;25.38;16.33;;;;;;;;;;5071225;28;20043;-76
2022/04/03 10:44:39;;;;;;;33.80;20.83;;;;;;;;;;5072392;28;20024;-76
2022/04/03 10:47:05;;;;;;;21.17;14.57;;;;;;;;;;5073329;28;20013;-76
2022/04/03 10:49:43;;;;;;;35.50;17.52;;;;;;;;;;5074449;28;20100;-76
2022/04/03 10:52:10;;;;;;;39.33;24.73;;;;;;;;;;5074303;28;20621;-76
2022/04/03 10:54:45;;;;;;;35.30;24.30;;;;;;;;;;5071955;28;20039;-76
2022/04/03 10:57:29;;;;;;;34.92;19.98;;;;;;;;;;5074347;28;20020;-76
2022/04/03 11:00:14;;;;;;;30.92;22.15;;;;;;;;;;5072794;28;20032;-77
2022/04/03 11:02:41;;;;;;;37.13;22.67;;;;;;;;;;5072218;28;20033;-78
2022/04/03 11:05:37;;;;;;;20.45;15.75;;;;;;;;;;5070273;28;20069;-77
2022/04/03 11:08:03;;;;;;;28.40;20.08;;;;;;;;;;5060505;28;20060;-77
2022/04/03 11:10:54;;;;;;;33.85;21.25;;;;;;;;;;5072805;28;20013;-77
2022/04/03 11:13:24;;;;;;;20.30;12.73;;;;;;;;;;5073063;28;20413;-77
2022/04/03 11:15:51;;;;;;;27.05;16.80;;;;;;;;;;5072611;28;20040;-75
2022/04/03 11:18:27;;;;;;;24.52;13.50;;;;;;;;;;5072420;28;20087;-76
2022/04/03 11:21:16;;;;;;;42.58;17.10;;;;;;;;;;5068929;28;20434;-76
2022/04/03 11:23:47;;;;;;;19.27;13.85;;;;;;;;;;5067517;28;20063;-76
2022/04/03 11:26:13;;;;;;;34.28;22.50;;;;;;;;;;5071628;28;20024;-77
2022/04/03 11:28:40;;;;;;;22.10;16.65;;;;;;;;;;5073436;28;20021;-76
2022/04/03 11:31:06;;;;;;;22.63;18.15;;;;;;;;;;5072868;28;20024;-77
2022/04/03 11:33:33;;;;;;;16.17;14.23;;;;;;;;;;5072060;28;20060;-77
2022/04/03 11:36:06;;;;;;;28.58;17.30;;;;;;;;;;5071152;28;20029;-77
2022/04/03 11:38:35;;;;;;;19.05;12.43;;;;;;;;;;5073130;28;20028;-77
2022/04/03 11:41:03;;;;;;;30.50;19.65;;;;;;;;;;5072261;28;20411;-78
2022/04/03 11:43:29;;;;;;;30.05;21.20;;;;;;;;;;5071995;28;20099;-76
2022/04/03 11:45:57;;;;;;;21.10;13.93;;;;;;;;;;5072103;28;20016;-76
2022/04/03 11:48:30;;;;;;;22.58;14.93;;;;;;;;;;5070037;28;20108;-76
2022/04/03 11:51:04;;;;;;;17.58;12.68;;;;;;;;;;5069989;28;20021;-76
2022/04/03 11:53:31;;;;;;;17.15;11.93;;;;;;;;;;5071493;28;20028;-77
2022/04/03 11:55:57;;;;;;;16.70;10.77;;;;;;;;;;5071609;28;20047;-76
2022/04/03 11:58:32;;;;;;;21.95;14.95;;;;;;;;;;5072707;28;20043;-76
2022/04/03 12:00:59;;;;;;;28.55;19.73;;;;;;;;;;5073181;28;20031;-76
2022/04/03 12:03:26;;;;;;;30.55;17.40;;;;;;;;;;5066825;28;20111;-77
2022/04/03 12:05:52;;;;;;;26.38;16.83;;;;;;;;;;5066743;28;20065;-76
2022/04/03 12:08:18;;;;;;;24.48;16.25;;;;;;;;;;5072934;28;20087;-76
2022/04/03 12:10:44;;;;;;;25.70;17.33;;;;;;;;;;5071419;28;20059;-77
2022/04/03 12:13:17;;;;;;;33.58;16.27;;;;;;;;;;5072794;28;20044;-76
2022/04/03 12:15:43;;;;;;;23.02;18.25;;;;;;;;;;5071042;28;20429;-78
2022/04/03 12:18:10;;;;;;;22.20;14.55;;;;;;;;;;5072317;28;20019;-77
2022/04/03 12:20:36;;;;;;;22.77;15.63;;;;;;;;;;5073030;28;20016;-76
2022/04/03 12:23:07;;;;;;;19.73;14.38;;;;;;;;;;5071181;28;20029;-77
2022/04/03 12:25:34;;;;;;;18.50;13.93;;;;;;;;;;5069275;28;20017;-76
2022/04/03 12:28:00;;;;;;;25.88;15.68;;;;;;;;;;5073277;28;20490;-77
2022/04/03 12:30:29;;;;;;;37.80;19.05;;;;;;;;;;5072097;28;20028;-77
2022/04/03 12:32:55;;;;;;;24.45;17.63;;;;;;;;;;5070560;28;20111;-77
2022/04/03 12:35:23;;;;;;;22.85;15.05;;;;;;;;;;5072934;28;20032;-76
2022/04/03 12:37:50;;;;;;;24.95;14.40;;;;;;;;;;5071381;28;20478;-77
2022/04/03 12:40:16;;;;;;;23.98;17.33;;;;;;;;;;5063620;28;20091;-76
2022/04/03 12:42:43;;;;;;;25.60;16.20;;;;;;;;;;5068170;28;20021;-77
2022/04/03 12:45:09;;;;;;;38.78;23.27;;;;;;;;;;5071211;28;20029;-77
2022/04/03 12:47:36;;;;;;;31.08;16.75;;;;;;;;;;5072133;28;20368;-76